createdAt,value
2019-01-24T00:02:18.964Z,-2.46
2019-01-24T00:04:50.402Z,-2.44
2019-01-24T00:07:21.758Z,-2.43
2019-01-24T00:09:53.021Z,-2.42
2019-01-24T00:12:24.297Z,-2.41
2019-01-24T00:14:55.726Z,-2.40
2019-01-24T00:17:27.243Z,-2.39
2019-01-24T00:19:58.430Z,-2.38
2019-01-24T00:22:29.752Z,-2.37
2019-01-24T00:25:01.998Z,-2.36
2019-01-24T00:27:33.296Z,-2.35
2019-01-24T00:30:05.559Z,-2.34
2019-01-24T00:32:37.368Z,-2.33
2019-01-24T00:35:08.984Z,-2.32
2019-01-24T00:37:40.215Z,-2.31
2019-01-24T00:40:13.446Z,-2.31
2019-01-24T00:42:44.716Z,-2.29
2019-01-24T00:45:16.145Z,-2.29
2019-01-24T00:47:47.535Z,-2.29
2019-01-24T00:50:18.902Z,-2.26
2019-01-24T00:52:50.250Z,-2.26
2019-01-24T00:55:21.573Z,-2.26
2019-01-24T00:57:52.813Z,-2.25
2019-01-24T01:00:25.935Z,-2.26
2019-01-24T01:02:57.183Z,-2.25
2019-01-24T01:05:28.604Z,-2.24
2019-01-24T01:07:59.811Z,-2.21
2019-01-24T01:10:31.037Z,-2.22
2019-01-24T01:13:02.391Z,-2.20
2019-01-24T01:15:33.670Z,-2.20
2019-01-24T01:18:05.137Z,-2.18
2019-01-24T01:20:36.374Z,-2.18
2019-01-24T01:23:07.632Z,-2.17
2019-01-24T01:25:38.904Z,-2.15
2019-01-24T01:28:10.122Z,-2.15
2019-01-24T01:30:41.415Z,-2.13
2019-01-24T01:33:12.772Z,-2.13
2019-01-24T01:35:44.035Z,-2.11
2019-01-24T01:38:15.234Z,-2.10
2019-01-24T01:40:46.685Z,-2.09
2019-01-24T01:43:18.339Z,-2.09
2019-01-24T01:45:49.577Z,-2.07
2019-01-24T01:48:20.948Z,-2.04
2019-01-24T01:50:52.283Z,-2.06
2019-01-24T01:53:23.601Z,-2.04
2019-01-24T01:55:54.851Z,-2.04
2019-01-24T01:58:26.133Z,-2.04
2019-01-24T02:00:57.349Z,-2.03
2019-01-24T02:03:28.583Z,-2.01
2019-01-24T02:06:01.886Z,-2.02
2019-01-24T02:08:33.147Z,-2.01
2019-01-24T02:11:04.322Z,-2.02
2019-01-24T02:13:35.547Z,-2.00
2019-01-24T02:16:06.995Z,-1.99
2019-01-24T02:18:38.309Z,-1.97
2019-01-24T02:21:09.591Z,-1.97
2019-01-24T02:23:41.807Z,-1.95
2019-01-24T02:26:13.169Z,-1.94
2019-01-24T02:28:44.488Z,-1.93
2019-01-24T02:31:15.689Z,-1.93
2019-01-24T02:33:46.937Z,-1.93
2019-01-24T02:36:18.308Z,-1.92
2019-01-24T02:38:49.603Z,-1.91
2019-01-24T02:41:21.029Z,-1.91
2019-01-24T02:43:52.266Z,-1.89
2019-01-24T02:46:23.433Z,-1.86
2019-01-24T02:48:54.749Z,-1.86
2019-01-24T02:51:26.082Z,-1.86
2019-01-24T02:53:57.371Z,-1.84
2019-01-24T02:56:28.560Z,-1.82
2019-01-24T02:58:59.793Z,-1.80
2019-01-24T03:01:31.272Z,-1.80
2019-01-24T03:04:02.684Z,-1.79
2019-01-24T03:06:34.066Z,-1.79
2019-01-24T03:09:07.553Z,-1.78
2019-01-24T03:11:39.082Z,-1.79
2019-01-24T03:14:10.346Z,-1.80
2019-01-24T03:16:41.571Z,-1.77
2019-01-24T03:19:12.931Z,-1.77
2019-01-24T03:21:44.174Z,-1.77
2019-01-24T03:24:15.445Z,-1.78
2019-01-24T03:26:46.881Z,-1.77
2019-01-24T03:29:18.592Z,-1.77
2019-01-24T03:31:50.256Z,-1.75
2019-01-24T03:34:21.770Z,-1.74
2019-01-24T03:36:53.203Z,-1.75
2019-01-24T03:39:24.426Z,-1.73
2019-01-24T03:41:55.654Z,-1.73
2019-01-24T03:44:27.101Z,-1.71
2019-01-24T03:46:58.298Z,-1.70
2019-01-24T03:49:29.522Z,-1.68
2019-01-24T03:52:00.771Z,-1.66
2019-01-24T03:54:32.009Z,-1.66
2019-01-24T03:57:03.847Z,-1.64
2019-01-24T03:59:35.290Z,-1.62
2019-01-24T04:02:06.815Z,-1.61
2019-01-24T04:04:38.139Z,-1.61
2019-01-24T04:07:09.420Z,-1.61
2019-01-24T04:09:40.645Z,-1.59
2019-01-24T04:12:11.976Z,-1.58
2019-01-24T04:14:43.190Z,-1.57
2019-01-24T04:17:14.378Z,-1.56
2019-01-24T04:19:46.680Z,-1.54
2019-01-24T04:22:18.072Z,-1.54
2019-01-24T04:24:49.955Z,-1.52
2019-01-24T04:27:21.520Z,-1.51
2019-01-24T04:29:52.957Z,-1.49
2019-01-24T04:32:25.123Z,-1.48
2019-01-24T04:34:56.497Z,-1.47
2019-01-24T04:37:28.804Z,-1.47
2019-01-24T04:39:59.969Z,-1.45
2019-01-24T04:42:31.277Z,-1.45
2019-01-24T04:45:02.529Z,-1.43
2019-01-24T04:47:33.692Z,-1.42
2019-01-24T04:50:05.782Z,-1.41
2019-01-24T04:52:37.111Z,-1.40
2019-01-24T04:55:09.928Z,-1.38
2019-01-24T04:57:41.117Z,-1.37
2019-01-24T05:00:21.649Z,-1.35
2019-01-24T05:02:52.796Z,-1.35
2019-01-24T05:05:27.982Z,-1.35
2019-01-24T05:07:57.236Z,-1.34
2019-01-24T05:10:28.482Z,-1.33
2019-01-24T05:13:00.013Z,-1.32
2019-01-24T05:15:31.271Z,-1.31
2019-01-24T05:18:02.567Z,-1.29
2019-01-24T05:20:33.868Z,-1.28
2019-01-24T05:23:05.184Z,-1.28
2019-01-24T05:25:36.422Z,-1.27
2019-01-24T05:28:07.641Z,-1.26
2019-01-24T05:30:39.005Z,-1.25
2019-01-24T05:33:10.263Z,-1.24
2019-01-24T05:35:41.420Z,-1.24
2019-01-24T05:38:12.638Z,-1.22
2019-01-24T05:40:43.948Z,-1.23
2019-01-24T05:43:15.254Z,-1.22
2019-01-24T05:45:46.540Z,-1.22
2019-01-24T05:48:17.727Z,-1.20
2019-01-24T05:50:48.981Z,-1.19
2019-01-24T05:53:20.212Z,-1.20
2019-01-24T05:55:51.535Z,-1.20
2019-01-24T05:58:22.735Z,-1.19
2019-01-24T06:00:53.950Z,-1.18
2019-01-24T06:03:25.149Z,-1.19
2019-01-24T06:05:56.408Z,-1.19
2019-01-24T06:08:27.735Z,-1.17
2019-01-24T06:10:59.053Z,-1.16
2019-01-24T06:13:30.247Z,-1.16
2019-01-24T06:16:01.622Z,-1.17
2019-01-24T06:18:33.557Z,-1.14
2019-01-24T06:21:04.927Z,-1.13
2019-01-24T06:23:36.234Z,-1.12
2019-01-24T06:26:07.519Z,-1.12
2019-01-24T06:28:38.897Z,-1.11
2019-01-24T06:31:10.072Z,-1.09
2019-01-24T06:33:41.524Z,-1.09
2019-01-24T06:36:12.769Z,-1.09
2019-01-24T06:38:44.901Z,-1.07
2019-01-24T06:41:16.242Z,-1.07
2019-01-24T06:43:47.467Z,-1.06
2019-01-24T06:46:18.700Z,-1.06
2019-01-24T06:48:49.910Z,-1.05
2019-01-24T06:51:21.223Z,-1.04
2019-01-24T06:53:52.615Z,-1.03
2019-01-24T06:56:23.845Z,-1.02
2019-01-24T06:58:55.182Z,-1.02
2019-01-24T07:01:26.350Z,-1.02
2019-01-24T07:03:57.624Z,-1.02
2019-01-24T07:06:28.872Z,-1.02
2019-01-24T07:09:00.215Z,-1.00
2019-01-24T07:11:37.747Z,-1.00
2019-01-24T07:14:10.410Z,-0.99
2019-01-24T07:16:43.251Z,-0.98
2019-01-24T07:19:14.594Z,-0.97
2019-01-24T07:21:45.923Z,-0.96
2019-01-24T07:24:17.192Z,-0.94
2019-01-24T07:26:48.468Z,-0.94
2019-01-24T07:29:19.862Z,-0.92
2019-01-24T07:31:51.189Z,-0.93
2019-01-24T07:34:22.405Z,-0.92
2019-01-24T07:36:53.736Z,-0.91
2019-01-24T07:39:24.933Z,-0.91
2019-01-24T07:41:56.204Z,-0.91
2019-01-24T07:44:27.438Z,-0.89
2019-01-24T07:46:58.846Z,-0.89
2019-01-24T07:49:30.080Z,-0.88
2019-01-24T07:52:01.731Z,-0.87
2019-01-24T07:54:32.945Z,-0.86
2019-01-24T07:57:04.188Z,-0.85
2019-01-24T07:59:35.871Z,-0.83
2019-01-24T08:02:07.155Z,-0.81
2019-01-24T08:04:38.427Z,-0.80
2019-01-24T08:07:09.738Z,-0.79
2019-01-24T08:09:41.183Z,-0.79
2019-01-24T08:12:13.427Z,-0.78
2019-01-24T08:14:46.693Z,-0.76
2019-01-24T08:17:21.402Z,-0.76
2019-01-24T08:19:54.382Z,-0.73
2019-01-24T08:22:29.791Z,-0.73
2019-01-24T08:25:01.278Z,-0.72
2019-01-24T08:27:33.366Z,-0.70
2019-01-24T08:30:08.711Z,-0.68
2019-01-24T08:32:41.974Z,-0.67
2019-01-24T08:35:17.100Z,-0.65
2019-01-24T08:37:49.963Z,-0.63
2019-01-24T08:40:21.548Z,-0.61
2019-01-24T08:42:53.047Z,-0.60
2019-01-24T08:45:24.372Z,-0.59
2019-01-24T08:47:55.632Z,-0.58
2019-01-24T08:50:28.232Z,-0.58
2019-01-24T08:52:59.855Z,-0.56
2019-01-24T08:55:39.263Z,-0.54
2019-01-24T08:58:10.950Z,-0.54
2019-01-24T09:00:42.303Z,-0.53
2019-01-24T09:03:13.476Z,-0.50
2019-01-24T09:05:44.697Z,-0.49
2019-01-24T09:08:15.991Z,-0.48
2019-01-24T09:10:47.267Z,-0.46
2019-01-24T09:13:18.470Z,-0.44
2019-01-24T09:15:49.794Z,-0.43
2019-01-24T09:18:21.303Z,-0.40
2019-01-24T09:20:52.544Z,-0.39
2019-01-24T09:23:23.863Z,-0.37
2019-01-24T09:25:55.134Z,-0.33
2019-01-24T09:28:26.451Z,-0.32
2019-01-24T09:30:58.056Z,-0.31
2019-01-24T09:33:29.448Z,-0.29
2019-01-24T09:36:03.430Z,-0.26
2019-01-24T09:38:34.777Z,-0.22
2019-01-24T09:41:06.199Z,-0.21
2019-01-24T09:43:37.529Z,-0.18
2019-01-24T09:46:08.821Z,-0.16
2019-01-24T09:48:40.179Z,-0.12
2019-01-24T09:51:11.346Z,-0.09
2019-01-24T09:53:42.785Z,-0.05
2019-01-24T09:56:14.233Z,0.00
2019-01-24T09:58:45.616Z,0.05
2019-01-24T10:01:17.371Z,0.10
2019-01-24T10:03:48.922Z,0.11
2019-01-24T10:06:20.354Z,0.14
2019-01-24T10:08:51.561Z,0.18
2019-01-24T10:11:23.615Z,0.19
2019-01-24T10:13:56.423Z,0.19
2019-01-24T10:16:27.778Z,0.17
2019-01-24T10:18:59.046Z,0.19
2019-01-24T10:21:30.205Z,0.20
2019-01-24T10:24:01.524Z,0.21
2019-01-24T10:26:32.802Z,0.23
2019-01-24T10:29:04.019Z,0.25
2019-01-24T10:31:35.328Z,0.27
2019-01-24T10:34:06.534Z,0.27
2019-01-24T10:36:42.977Z,0.29
2019-01-24T10:39:11.155Z,0.31
2019-01-24T10:41:42.399Z,0.33
2019-01-24T10:44:13.741Z,0.33
2019-01-24T10:46:45.088Z,0.33
2019-01-24T10:49:16.299Z,0.34
2019-01-24T10:51:47.700Z,0.34
2019-01-24T10:54:18.907Z,0.36
2019-01-24T10:56:50.156Z,0.37
2019-01-24T10:59:21.517Z,0.37
2019-01-24T11:01:55.465Z,0.38
2019-01-24T11:04:25.932Z,0.41
2019-01-24T11:06:57.240Z,0.41
2019-01-24T11:09:28.540Z,0.44
2019-01-24T11:11:59.938Z,0.46
2019-01-24T11:14:31.244Z,0.47
2019-01-24T11:17:02.943Z,0.49
2019-01-24T11:19:34.226Z,0.52
2019-01-24T11:22:05.770Z,0.56
2019-01-24T11:24:37.091Z,0.60
2019-01-24T11:27:08.315Z,0.62
2019-01-24T11:29:39.623Z,0.65
2019-01-24T11:32:10.958Z,0.68
2019-01-24T11:34:42.374Z,0.70
2019-01-24T11:37:13.629Z,0.74
2019-01-24T11:39:44.942Z,0.73
2019-01-24T11:42:16.229Z,0.75
2019-01-24T11:44:47.907Z,0.76
2019-01-24T11:47:19.273Z,0.79
2019-01-24T11:49:51.688Z,0.80
2019-01-24T11:52:22.893Z,0.81
2019-01-24T11:54:54.236Z,0.82
2019-01-24T11:57:25.467Z,0.82
2019-01-24T11:59:56.758Z,0.82
2019-01-24T12:02:28.108Z,0.84
2019-01-24T12:04:59.404Z,0.84
2019-01-24T12:07:30.626Z,0.85
2019-01-24T12:10:01.868Z,0.86
2019-01-24T12:12:33.252Z,0.85
2019-01-24T12:15:04.486Z,0.84
2019-01-24T12:17:35.833Z,0.82
2019-01-24T12:20:10.336Z,0.82
2019-01-24T12:22:41.650Z,0.81
2019-01-24T12:25:12.925Z,0.80
2019-01-24T12:27:44.146Z,0.78
2019-01-24T12:30:27.452Z,0.78
2019-01-24T12:32:59.230Z,0.77
2019-01-24T12:35:30.646Z,0.77
2019-01-24T12:38:02.025Z,0.76
2019-01-24T12:40:33.348Z,0.76
2019-01-24T12:43:05.397Z,0.77
2019-01-24T12:45:37.655Z,0.77
2019-01-24T12:48:08.888Z,0.77
2019-01-24T12:50:40.071Z,0.76
2019-01-24T12:53:11.217Z,0.76
2019-01-24T12:55:42.482Z,0.76
2019-01-24T12:58:13.781Z,0.75
2019-01-24T13:00:45.041Z,0.74
2019-01-24T13:03:16.256Z,0.74
2019-01-24T13:05:47.469Z,0.76
2019-01-24T13:08:18.727Z,0.76
2019-01-24T13:10:50.202Z,0.77
2019-01-24T13:13:21.784Z,0.75
2019-01-24T13:15:53.137Z,0.77
2019-01-24T13:18:24.499Z,0.77
2019-01-24T13:20:55.838Z,0.77
2019-01-24T13:23:28.266Z,0.76
2019-01-24T13:25:59.606Z,0.76
2019-01-24T13:28:30.868Z,0.76
2019-01-24T13:31:02.381Z,0.75
2019-01-24T13:33:33.695Z,0.75
2019-01-24T13:36:05.007Z,0.75
2019-01-24T13:38:36.785Z,0.75
2019-01-24T13:41:08.075Z,0.75
2019-01-24T13:43:39.622Z,0.73
2019-01-24T13:46:11.110Z,0.72
2019-01-24T13:48:42.513Z,0.71
2019-01-24T13:51:14.009Z,0.70
2019-01-24T13:53:45.458Z,0.69
2019-01-24T13:56:16.860Z,0.68
2019-01-24T13:58:48.257Z,0.65
2019-01-24T14:01:19.502Z,0.65
2019-01-24T14:04:15.104Z,0.63
2019-01-24T14:06:46.426Z,0.62
2019-01-24T14:09:17.664Z,0.60
2019-01-24T14:11:49.144Z,0.59
2019-01-24T14:14:23.680Z,0.56
2019-01-24T14:16:55.027Z,0.53
2019-01-24T14:19:26.365Z,0.52
2019-01-24T14:21:57.731Z,0.50
2019-01-24T14:24:30.206Z,0.50
2019-01-24T14:27:02.871Z,0.49
2019-01-24T14:29:34.285Z,0.46
2019-01-24T14:32:14.572Z,0.46
2019-01-24T14:34:46.957Z,0.45
2019-01-24T14:37:18.382Z,0.44
2019-01-24T14:39:49.778Z,0.44
2019-01-24T14:42:21.113Z,0.42
2019-01-24T14:44:52.478Z,0.41
2019-01-24T14:47:23.913Z,0.41
2019-01-24T14:49:55.087Z,0.39
2019-01-24T14:52:26.543Z,0.38
2019-01-24T14:54:57.889Z,0.35
2019-01-24T14:57:29.139Z,0.31
2019-01-24T15:00:01.321Z,0.28
2019-01-24T15:02:36.563Z,0.28
2019-01-24T15:05:09.533Z,0.26
2019-01-24T15:07:47.068Z,0.25
2019-01-24T15:10:16.282Z,0.22
2019-01-24T15:12:47.484Z,0.20
2019-01-24T15:15:19.105Z,0.17
2019-01-24T15:17:51.640Z,0.16
2019-01-24T15:20:22.838Z,0.13
2019-01-24T15:22:54.111Z,0.12
2019-01-24T15:25:25.291Z,0.10
2019-01-24T15:27:56.616Z,0.09
2019-01-24T15:30:28.974Z,0.08
2019-01-24T15:33:00.178Z,0.07
2019-01-24T15:35:31.511Z,0.05
2019-01-24T15:38:02.838Z,0.06
2019-01-24T15:40:34.074Z,0.04
2019-01-24T15:43:05.795Z,0.00
2019-01-24T15:45:39.781Z,-0.01
2019-01-24T15:48:11.541Z,-0.03
2019-01-24T15:50:43.091Z,-0.04
2019-01-24T15:53:14.398Z,-0.04
2019-01-24T15:55:45.908Z,-0.07
2019-01-24T15:58:17.243Z,-0.07
2019-01-24T16:00:50.112Z,-0.08
2019-01-24T16:03:21.524Z,-0.09
2019-01-24T16:05:52.894Z,-0.10
2019-01-24T16:08:26.019Z,-0.12
2019-01-24T16:10:59.650Z,-0.12
2019-01-24T16:13:31.956Z,-0.15
2019-01-24T16:16:06.488Z,-0.16
2019-01-24T16:18:40.641Z,-0.16
2019-01-24T16:21:15.091Z,-0.17
2019-01-24T16:23:46.514Z,-0.17
2019-01-24T16:26:17.755Z,-0.19
2019-01-24T16:28:49.015Z,-0.20
2019-01-24T16:31:20.556Z,-0.19
2019-01-24T16:33:56.277Z,-0.20
2019-01-24T16:36:27.944Z,-0.21
2019-01-24T16:39:00.555Z,-0.22
2019-01-24T16:41:32.113Z,-0.22
2019-01-24T16:44:03.644Z,-0.24
2019-01-24T16:46:35.006Z,-0.24
2019-01-24T16:49:06.241Z,-0.25
2019-01-24T16:51:41.230Z,-0.27
2019-01-24T16:54:13.851Z,-0.28
2019-01-24T16:56:45.260Z,-0.28
2019-01-24T16:59:16.470Z,-0.29
2019-01-24T17:01:47.865Z,-0.31
2019-01-24T17:04:19.215Z,-0.31
2019-01-24T17:06:50.729Z,-0.33
2019-01-24T17:09:23.417Z,-0.31
2019-01-24T17:11:56.186Z,-0.32
2019-01-24T17:14:32.219Z,-0.32
2019-01-24T17:17:10.788Z,-0.33
2019-01-24T17:19:42.906Z,-0.33
2019-01-24T17:22:14.234Z,-0.36
2019-01-24T17:24:45.880Z,-0.37
2019-01-24T17:27:17.337Z,-0.37
2019-01-24T17:29:48.784Z,-0.38
2019-01-24T17:32:20.141Z,-0.39
2019-01-24T17:34:51.502Z,-0.39
2019-01-24T17:37:22.825Z,-0.39
2019-01-24T17:39:54.357Z,-0.39
2019-01-24T17:42:25.758Z,-0.40
2019-01-24T17:44:57.296Z,-0.40
2019-01-24T17:47:28.784Z,-0.42
2019-01-24T17:50:00.090Z,-0.42
2019-01-24T17:52:31.559Z,-0.42
2019-01-24T17:55:02.912Z,-0.42
2019-01-24T17:57:34.360Z,-0.44
2019-01-24T18:00:08.807Z,-0.45
2019-01-24T18:02:40.154Z,-0.45
2019-01-24T18:05:11.612Z,-0.46
2019-01-24T18:07:42.996Z,-0.46
2019-01-24T18:10:17.537Z,-0.46
2019-01-24T18:12:49.134Z,-0.47
2019-01-24T18:15:26.690Z,-0.48
2019-01-24T18:17:58.034Z,-0.49
2019-01-24T18:20:35.425Z,-0.49
2019-01-24T18:23:06.874Z,-0.48
2019-01-24T18:25:38.316Z,-0.50
2019-01-24T18:28:11.209Z,-0.48
2019-01-24T18:30:44.287Z,-0.48
2019-01-24T18:33:15.701Z,-0.50
2019-01-24T18:35:46.931Z,-0.51
2019-01-24T18:38:18.179Z,-0.51
2019-01-24T18:40:49.644Z,-0.51
2019-01-24T18:43:26.095Z,-0.51
2019-01-24T18:45:59.862Z,-0.52
2019-01-24T18:48:31.065Z,-0.51
2019-01-24T18:51:02.303Z,-0.50
2019-01-24T18:53:33.500Z,-0.52
2019-01-24T18:56:04.830Z,-0.51
2019-01-24T18:58:36.072Z,-0.51
2019-01-24T19:01:07.420Z,-0.50
2019-01-24T19:03:38.747Z,-0.50
2019-01-24T19:06:10.107Z,-0.50
2019-01-24T19:08:49.713Z,-0.52
2019-01-24T19:11:21.274Z,-0.51
2019-01-24T19:13:52.687Z,-0.51
2019-01-24T19:16:24.005Z,-0.52
2019-01-24T19:18:55.200Z,-0.52
2019-01-24T19:21:26.526Z,-0.53
2019-01-24T19:23:57.968Z,-0.53
2019-01-24T19:26:29.274Z,-0.53
2019-01-24T19:29:00.769Z,-0.53
2019-01-24T19:31:32.086Z,-0.52
2019-01-24T19:34:03.409Z,-0.53
2019-01-24T19:36:34.685Z,-0.52
2019-01-24T19:39:08.828Z,-0.53
2019-01-24T19:41:40.316Z,-0.53
2019-01-24T19:44:15.613Z,-0.53
2019-01-24T19:46:46.226Z,-0.52
2019-01-24T19:49:18.920Z,-0.52
2019-01-24T19:51:50.156Z,-0.52
2019-01-24T19:54:22.786Z,-0.54
2019-01-24T19:56:54.565Z,-0.54
2019-01-24T19:59:29.200Z,-0.53
2019-01-24T20:02:00.535Z,-0.55
2019-01-24T20:04:31.701Z,-0.55
2019-01-24T20:07:02.921Z,-0.55
2019-01-24T20:09:34.264Z,-0.56
2019-01-24T20:12:05.842Z,-0.56
2019-01-24T20:14:37.102Z,-0.56
2019-01-24T20:17:08.431Z,-0.57
2019-01-24T20:19:39.850Z,-0.57
2019-01-24T20:22:11.087Z,-0.56
2019-01-24T20:24:42.488Z,-0.57
2019-01-24T20:27:13.744Z,-0.56
2019-01-24T20:29:45.206Z,-0.55
2019-01-24T20:32:17.552Z,-0.56
2019-01-24T20:34:48.819Z,-0.56
2019-01-24T20:37:20.158Z,-0.56
2019-01-24T20:39:51.381Z,-0.56
2019-01-24T20:42:22.666Z,-0.56
2019-01-24T20:44:54.098Z,-0.57
2019-01-24T20:47:25.179Z,-0.58
2019-01-24T20:49:56.403Z,-0.58
2019-01-24T20:52:27.750Z,-0.58
2019-01-24T20:54:59.141Z,-0.59
2019-01-24T20:57:32.573Z,-0.59
2019-01-24T21:00:05.966Z,-0.61
2019-01-24T21:02:37.503Z,-0.61
2019-01-24T21:05:09.921Z,-0.60
2019-01-24T21:07:41.415Z,-0.62
2019-01-24T21:10:18.615Z,-0.63
2019-01-24T21:12:52.975Z,-0.65
2019-01-24T21:15:28.151Z,-0.65
2019-01-24T21:18:01.810Z,-0.65
2019-01-24T21:20:43.304Z,-0.64
2019-01-24T21:23:18.175Z,-0.66
2019-01-24T21:25:50.152Z,-0.65
2019-01-24T21:28:21.631Z,-0.65
2019-01-24T21:30:53.195Z,-0.66
2019-01-24T21:33:24.510Z,-0.65
2019-01-24T21:35:58.299Z,-0.67
2019-01-24T21:38:29.626Z,-0.67
2019-01-24T21:41:01.699Z,-0.68
2019-01-24T21:43:33.039Z,-0.67
2019-01-24T21:46:04.772Z,-0.66
2019-01-24T21:48:38.626Z,-0.66
2019-01-24T21:51:11.295Z,-0.67
2019-01-24T21:53:42.782Z,-0.67
2019-01-24T21:56:14.124Z,-0.68
2019-01-24T21:58:47.323Z,-0.69
2019-01-24T22:01:20.016Z,-0.68
2019-01-24T22:03:54.810Z,-0.69
2019-01-24T22:06:45.799Z,-0.69
2019-01-24T22:09:17.443Z,-0.69
2019-01-24T22:11:49.225Z,-0.69
2019-01-24T22:14:22.935Z,-0.69
2019-01-24T22:16:56.307Z,-0.69
2019-01-24T22:19:27.562Z,-0.70
2019-01-24T22:22:00.884Z,-0.71
2019-01-24T22:24:34.053Z,-0.70
2019-01-24T22:27:05.457Z,-0.71
2019-01-24T22:29:36.792Z,-0.71
2019-01-24T22:32:10.831Z,-0.71
2019-01-24T22:34:49.622Z,-0.71
2019-01-24T22:37:20.856Z,-0.70
2019-01-24T22:39:52.250Z,-0.71
2019-01-24T22:42:23.719Z,-0.71
2019-01-24T22:44:57.180Z,-0.72
2019-01-24T22:47:33.644Z,-0.72
2019-01-24T22:50:09.503Z,-0.74
2019-01-24T22:52:43.058Z,-0.72
2019-01-24T22:55:18.814Z,-0.72
2019-01-24T22:57:50.294Z,-0.72
2019-01-24T23:00:49.158Z,-0.73
2019-01-24T23:03:43.793Z,-0.73
2019-01-24T23:06:15.548Z,-0.74
2019-01-24T23:08:48.016Z,-0.76
2019-01-24T23:11:21.358Z,-0.76
2019-01-24T23:13:52.911Z,-0.76
2019-01-24T23:16:26.346Z,-0.78
2019-01-24T23:18:57.789Z,-0.77
2019-01-24T23:21:29.139Z,-0.79
2019-01-24T23:24:00.424Z,-0.80
2019-01-24T23:26:34.306Z,-0.81
2019-01-24T23:29:06.296Z,-0.82
2019-01-24T23:31:40.264Z,-0.83
2019-01-24T23:34:11.711Z,-0.84
2019-01-24T23:36:45.828Z,-0.85
2019-01-24T23:39:17.495Z,-0.86
2019-01-24T23:41:50.532Z,-0.88
2019-01-24T23:44:21.881Z,-0.88
2019-01-24T23:46:57.634Z,-0.88
2019-01-24T23:49:28.928Z,-0.89
2019-01-24T23:52:02.677Z,-0.90
2019-01-24T23:54:34.984Z,-0.91
2019-01-24T23:57:06.334Z,-0.91
2019-01-24T23:59:37.744Z,-0.92
